Pagrindinis puslapis
METAR-TAF:

METAR-TAF

Oro uostai :

Arauka, Kolumbija

platuma: 07-04N, ilguma: 070-44W, Aukštis: 128 m

Dabartinis oras

Ataskaita buvo paskelbta 29 minutes, ne 12:00 UTC
Vėjas 3 kt iš Rytų/Šiaurės Rytų
Temperatūra 24°C
Drėgmė 65%
Slėgis 1014 hPa
Matomumas 10 km arba daugiau
Mažai debesys ne aukštis 3000 ft

METAR: SKUC 281200Z 06003KT 9999 FEW030 24/17 A2993

Laikas: 07:29 (12:29 UTC)


TAF: trūkstamas

Orai ataskaitas ir orų prognozės (METAR, TAF).

turimą stotys yra geltonos ir raudonos taškus žemėlapyje.

Perkelti pele per norėdami pamatyti stoties vardą.

Tada spustelėkite, norėdami matyti oro stebėjimo ir prognozės.

Norėdami pakeisti žemėlapį: spustelėkite ant žalios mygtukų su juodo kryžiaus žemyn,; žalią mygtuką su brūkšneliu, jei norite nutolinti; arba žalių rodyklių gretimoms žemėlapius.


METAR-TAF: